Time;durP1;ratioP1;P1;durP2;ratioP2;P2;SDS_P1;SDS_P2;PMS_P1;PMS_P2;Temp;Humidity;BMP_temperature;BMP_pressure;BME280_temperature;BME280_humidity;BME280_pressure;Samples;Min_cycle;Max_cycle;Signal;HPM_P1;HPM_P2
2023/09/03 00:07:13;;;;;;;4.38;1.40;;;;;;;;;;21085406;28;20046;-62
2023/09/03 00:17:14;;;;;;;3.55;1.15;;;;;;;;;;21086052;28;20048;-63
2023/09/03 00:27:16;;;;;;;1.98;0.98;;;;;;;;;;21085081;28;20089;-63
2023/09/03 00:37:17;;;;;;;0.75;0.60;;;;;;;;;;21084574;28;20048;-62
2023/09/03 00:47:19;;;;;;;1.23;0.70;;;;;;;;;;21083779;28;20079;-62
2023/09/03 00:57:20;;;;;;;2.58;0.70;;;;;;;;;;21082020;28;20501;-62
2023/09/03 01:07:21;;;;;;;3.55;0.80;;;;;;;;;;21082178;28;20044;-62
2023/09/03 01:17:31;;;;;;;2.10;0.90;;;;;;;;;;21081206;28;20044;-63
2023/09/03 01:27:41;;;;;;;2.17;1.00;;;;;;;;;;21079529;28;20054;-62
2023/09/03 01:37:42;;;;;;;2.78;1.05;;;;;;;;;;21080293;28;20113;-63
2023/09/03 01:47:51;;;;;;;1.27;0.70;;;;;;;;;;21080145;28;20071;-63
2023/09/03 01:57:56;;;;;;;3.35;0.77;;;;;;;;;;21078744;28;20102;-63
2023/09/03 02:07:57;;;;;;;1.90;0.90;;;;;;;;;;21079347;28;20548;-62
2023/09/03 02:17:58;;;;;;;2.30;0.82;;;;;;;;;;21078858;28;20040;-63
2023/09/03 02:28:00;;;;;;;3.05;0.90;;;;;;;;;;21088250;28;20563;-62
2023/09/03 02:38:01;;;;;;;4.20;1.02;;;;;;;;;;21094055;28;20044;-62
2023/09/03 02:48:02;;;;;;;3.40;0.80;;;;;;;;;;21093243;28;20508;-63
2023/09/03 02:58:03;;;;;;;5.05;1.00;;;;;;;;;;21090889;28;20056;-62
2023/09/03 03:08:05;;;;;;;1.52;0.93;;;;;;;;;;21091554;28;20044;-63
2023/09/03 03:18:06;;;;;;;2.38;0.85;;;;;;;;;;21090989;28;20154;-63
2023/09/03 03:28:07;;;;;;;1.35;1.10;;;;;;;;;;21089820;28;20131;-62
2023/09/03 03:38:09;;;;;;;5.30;1.10;;;;;;;;;;21089107;28;20119;-63
2023/09/03 03:48:10;;;;;;;2.60;1.30;;;;;;;;;;21088593;28;20105;-63
2023/09/03 03:58:11;;;;;;;3.20;1.52;;;;;;;;;;21086364;28;20484;-63
2023/09/03 04:08:12;;;;;;;2.10;1.23;;;;;;;;;;21086562;28;20511;-62
2023/09/03 04:18:13;;;;;;;2.75;1.30;;;;;;;;;;21087114;28;20055;-63
2023/09/03 04:28:14;;;;;;;2.55;1.10;;;;;;;;;;21085050;28;20040;-64
2023/09/03 04:38:15;;;;;;;2.15;1.30;;;;;;;;;;21084423;28;20067;-63
2023/09/03 04:48:17;;;;;;;1.75;1.00;;;;;;;;;;21083031;28;20406;-63
2023/09/03 04:58:18;;;;;;;1.42;1.05;;;;;;;;;;21082137;28;20413;-62
2023/09/03 05:08:19;;;;;;;3.00;1.30;;;;;;;;;;21081034;28;20447;-62
2023/09/03 05:18:20;;;;;;;3.30;1.33;;;;;;;;;;21081944;28;20044;-62
2023/09/03 05:28:21;;;;;;;2.97;1.10;;;;;;;;;;21079912;28;20036;-62
2023/09/03 05:38:23;;;;;;;2.67;0.95;;;;;;;;;;21080558;28;20052;-63
2023/09/03 05:48:24;;;;;;;3.50;1.10;;;;;;;;;;21080385;28;20040;-63
2023/09/03 05:58:25;;;;;;;2.58;0.85;;;;;;;;;;21081363;28;20509;-63
2023/09/03 06:08:26;;;;;;;2.08;0.90;;;;;;;;;;21095000;28;20079;-62
2023/09/03 06:18:27;;;;;;;1.83;1.08;;;;;;;;;;21093909;28;20086;-62
2023/09/03 06:28:28;;;;;;;1.30;0.73;;;;;;;;;;21094468;28;20439;-63
2023/09/03 06:38:29;;;;;;;4.18;1.42;;;;;;;;;;21092354;28;20056;-63
2023/09/03 06:48:31;;;;;;;1.65;0.80;;;;;;;;;;21091884;28;20052;-63
2023/09/03 06:58:32;;;;;;;3.22;1.00;;;;;;;;;;21091383;28;20056;-63
2023/09/03 07:08:33;;;;;;;3.08;0.90;;;;;;;;;;21091135;28;20048;-63
2023/09/03 07:18:35;;;;;;;2.08;0.88;;;;;;;;;;21090757;28;20102;-62
2023/09/03 07:28:37;;;;;;;2.15;1.08;;;;;;;;;;21089638;28;20047;-63
2023/09/03 07:38:38;;;;;;;2.38;0.93;;;;;;;;;;21087610;28;20131;-63
2023/09/03 07:48:39;;;;;;;2.00;0.90;;;;;;;;;;21088169;28;20043;-62
2023/09/03 07:58:42;;;;;;;2.03;0.70;;;;;;;;;;21086203;28;20079;-62
2023/09/03 08:08:43;;;;;;;3.08;1.10;;;;;;;;;;21086531;28;20125;-63
2023/09/03 08:18:44;;;;;;;1.15;0.70;;;;;;;;;;21084550;28;20040;-62
2023/09/03 08:28:46;;;;;;;2.92;0.95;;;;;;;;;;21082640;28;20036;-63
2023/09/03 08:38:47;;;;;;;1.30;0.90;;;;;;;;;;21084289;28;20048;-63
2023/09/03 08:48:48;;;;;;;1.55;0.70;;;;;;;;;;21082705;28;20482;-62
2023/09/03 08:58:49;;;;;;;2.50;1.23;;;;;;;;;;21081181;28;20060;-62
2023/09/03 09:08:51;;;;;;;2.67;1.00;;;;;;;;;;21081743;28;20048;-63
2023/09/03 09:18:52;;;;;;;2.67;1.13;;;;;;;;;;21080940;28;20065;-63
2023/09/03 09:28:57;;;;;;;3.67;1.45;;;;;;;;;;21080501;28;20044;-63
2023/09/03 09:39:08;;;;;;;3.95;1.48;;;;;;;;;;21079917;28;20048;-62
2023/09/03 09:49:10;;;;;;;3.03;1.02;;;;;;;;;;21078274;28;20040;-62
2023/09/03 09:59:11;;;;;;;3.50;1.48;;;;;;;;;;21078198;28;20056;-63
2023/09/03 10:09:12;;;;;;;3.30;1.40;;;;;;;;;;21079092;28;20043;-63
2023/09/03 10:19:16;;;;;;;3.03;1.20;;;;;;;;;;21078665;28;20496;-63
2023/09/03 10:29:19;;;;;;;1.38;1.00;;;;;;;;;;21078167;28;20117;-63
2023/09/03 10:39:23;;;;;;;2.53;0.60;;;;;;;;;;21076786;28;20044;-63
2023/09/03 10:49:39;;;;;;;2.65;0.70;;;;;;;;;;21087696;28;20044;-61
2023/09/03 11:00:00;;;;;;;1.55;0.77;;;;;;;;;;21093624;28;20500;-63
2023/09/03 11:10:20;;;;;;;4.10;1.00;;;;;;;;;;21091365;28;20074;-62
2023/09/03 11:20:31;;;;;;;3.45;1.05;;;;;;;;;;21089291;28;20044;-62
2023/09/03 11:30:32;;;;;;;2.58;1.00;;;;;;;;;;21089820;28;20043;-62
2023/09/03 11:40:33;;;;;;;4.32;1.20;;;;;;;;;;21088811;28;20048;-64
2023/09/03 11:50:34;;;;;;;5.65;1.02;;;;;;;;;;21087837;28;20044;-63
2023/09/03 12:00:36;;;;;;;4.78;2.00;;;;;;;;;;21085274;28;20126;-62
2023/09/03 12:10:37;;;;;;;4.57;1.77;;;;;;;;;;21086492;28;20048;-62
2023/09/03 12:20:39;;;;;;;7.43;1.80;;;;;;;;;;21085588;28;20119;-62
2023/09/03 12:31:13;;;;;;;8.23;2.78;;;;;;;;;;21084572;28;20071;-63
2023/09/03 12:41:14;;;;;;;9.48;2.58;;;;;;;;;;21060695;28;20054;-63
2023/09/03 12:51:16;;;;;;;10.18;3.13;;;;;;;;;;21082479;28;20527;-61
2023/09/03 13:01:18;;;;;;;8.07;3.05;;;;;;;;;;21082485;28;20447;-62
2023/09/03 13:11:19;;;;;;;7.10;2.20;;;;;;;;;;21080781;28;20486;-62
2023/09/03 13:21:20;;;;;;;10.63;3.30;;;;;;;;;;21082350;28;20398;-63
2023/09/03 13:31:22;;;;;;;15.20;3.80;;;;;;;;;;21078988;28;20044;-62
2023/09/03 13:41:23;;;;;;;24.75;4.65;;;;;;;;;;21078236;28;20055;-63
2023/09/03 13:51:24;;;;;;;15.38;3.22;;;;;;;;;;21077741;28;20394;-62
2023/09/03 14:01:26;;;;;;;11.75;3.60;;;;;;;;;;21078960;28;20416;-63
2023/09/03 14:11:27;;;;;;;14.73;2.90;;;;;;;;;;21078988;28;20375;-63
2023/09/03 14:21:28;;;;;;;14.30;2.10;;;;;;;;;;21084217;28;20047;-62
2023/09/03 14:31:29;;;;;;;12.90;2.72;;;;;;;;;;21092866;28;20036;-61
2023/09/03 14:41:30;;;;;;;10.13;2.25;;;;;;;;;;21092724;28;20047;-63
2023/09/03 14:51:32;;;;;;;14.40;2.65;;;;;;;;;;21092564;28;20063;-63
2023/09/03 15:01:33;;;;;;;13.50;2.83;;;;;;;;;;21092766;28;20452;-61
2023/09/03 15:11:34;;;;;;;10.23;2.42;;;;;;;;;;21091590;28;20048;-62
2023/09/03 15:21:35;;;;;;;10.27;2.67;;;;;;;;;;21090994;28;20040;-63
2023/09/03 15:31:36;;;;;;;12.63;3.03;;;;;;;;;;21089295;28;20396;-63
2023/09/03 15:41:38;;;;;;;15.57;2.85;;;;;;;;;;21088913;28;20135;-63
2023/09/03 15:51:44;;;;;;;16.58;3.17;;;;;;;;;;21087598;28;20067;-63
2023/09/03 16:01:45;;;;;;;12.02;2.53;;;;;;;;;;21087483;28;20507;-62
2023/09/03 16:11:46;;;;;;;9.63;2.35;;;;;;;;;;21084615;28;20048;-63
2023/09/03 16:21:48;;;;;;;11.50;1.95;;;;;;;;;;21086008;28;20044;-62
2023/09/03 16:31:50;;;;;;;10.45;2.10;;;;;;;;;;21084871;28;20040;-62
2023/09/03 16:41:51;;;;;;;4.78;1.65;;;;;;;;;;21083854;28;20618;-63
2023/09/03 16:51:52;;;;;;;8.57;1.45;;;;;;;;;;21083591;28;20051;-64
2023/09/03 17:01:53;;;;;;;10.05;2.30;;;;;;;;;;21081869;28;20074;-63
2023/09/03 17:11:54;;;;;;;11.10;2.05;;;;;;;;;;21079388;28;20048;-62
2023/09/03 17:21:56;;;;;;;9.35;2.20;;;;;;;;;;21080176;28;20097;-63
2023/09/03 17:31:58;;;;;;;10.85;2.22;;;;;;;;;;21080792;28;20055;-63
2023/09/03 17:42:00;;;;;;;9.57;1.92;;;;;;;;;;21080302;28;20044;-63
2023/09/03 17:52:01;;;;;;;10.35;1.63;;;;;;;;;;21079356;28;20444;-63
2023/09/03 18:02:04;;;;;;;8.75;2.17;;;;;;;;;;21096657;28;20044;-62
2023/09/03 18:12:05;;;;;;;13.13;2.60;;;;;;;;;;21094897;28;20044;-62
2023/09/03 18:22:06;;;;;;;11.88;2.58;;;;;;;;;;21095522;28;20168;-63
2023/09/03 18:32:08;;;;;;;12.88;2.63;;;;;;;;;;21093385;28;20131;-63
2023/09/03 18:42:09;;;;;;;11.40;2.50;;;;;;;;;;21093856;28;20060;-62
2023/09/03 18:52:10;;;;;;;12.52;3.00;;;;;;;;;;21092382;28;20139;-65
2023/09/03 19:02:16;;;;;;;15.85;3.83;;;;;;;;;;21092143;28;20379;-62
2023/09/03 19:12:17;;;;;;;11.32;3.17;;;;;;;;;;21090866;28;20531;-63
2023/09/03 19:22:18;;;;;;;17.75;3.80;;;;;;;;;;21091686;28;20040;-64
2023/09/03 19:32:19;;;;;;;15.45;4.45;;;;;;;;;;21088903;28;20552;-63
2023/09/03 19:42:21;;;;;;;12.80;3.72;;;;;;;;;;21089353;28;20540;-63
2023/09/03 19:52:22;;;;;;;19.20;5.60;;;;;;;;;;21088180;28;20052;-63
2023/09/03 20:02:23;;;;;;;24.08;6.18;;;;;;;;;;21087647;28;20501;-63
2023/09/03 20:12:24;;;;;;;19.58;4.20;;;;;;;;;;21086868;28;20044;-63
2023/09/03 20:22:25;;;;;;;11.32;3.63;;;;;;;;;;21085111;28;20040;-63
2023/09/03 20:32:26;;;;;;;21.58;4.65;;;;;;;;;;21085295;28;20062;-62
2023/09/03 20:42:27;;;;;;;19.60;3.70;;;;;;;;;;21084787;28;20044;-63
2023/09/03 20:52:28;;;;;;;19.30;3.78;;;;;;;;;;21083293;28;20101;-62
2023/09/03 21:02:29;;;;;;;23.42;4.38;;;;;;;;;;21082983;28;20080;-64
2023/09/03 21:12:30;;;;;;;25.80;5.95;;;;;;;;;;21082433;28;20036;-62
2023/09/03 21:22:35;;;;;;;29.92;5.53;;;;;;;;;;21081785;28;20040;-62
2023/09/03 21:32:36;;;;;;;14.25;3.88;;;;;;;;;;21080922;28;20400;-63
2023/09/03 21:42:37;;;;;;;13.55;3.20;;;;;;;;;;21080401;28;20177;-62
2023/09/03 21:52:38;;;;;;;10.20;2.50;;;;;;;;;;21078775;28;20056;-63
2023/09/03 22:02:42;;;;;;;9.90;1.90;;;;;;;;;;21079936;28;20390;-63
2023/09/03 22:12:43;;;;;;;20.80;4.85;;;;;;;;;;21079667;28;20056;-64
2023/09/03 22:22:44;;;;;;;12.90;3.53;;;;;;;;;;21079148;28;20501;-63
2023/09/03 22:32:45;;;;;;;10.43;2.30;;;;;;;;;;21078789;28;20040;-63
2023/09/03 22:42:46;;;;;;;14.82;2.50;;;;;;;;;;21084704;28;20545;-63
2023/09/03 22:52:48;;;;;;;11.63;2.78;;;;;;;;;;21091921;28;20054;-63
2023/09/03 23:02:49;;;;;;;14.20;2.35;;;;;;;;;;21091599;28;20047;-62
2023/09/03 23:12:50;;;;;;;8.10;2.55;;;;;;;;;;21092220;28;20513;-63
2023/09/03 23:22:52;;;;;;;12.68;2.92;;;;;;;;;;21090140;28;20097;-63
2023/09/03 23:32:53;;;;;;;10.25;2.83;;;;;;;;;;21090562;28;20379;-62
2023/09/03 23:42:54;;;;;;;12.10;2.67;;;;;;;;;;21089920;28;20481;-63
2023/09/03 23:52:55;;;;;;;10.80;3.10;;;;;;;;;;21088450;28;20500;-63
